Time;durP1;ratioP1;P1;durP2;ratioP2;P2;SDS_P1;SDS_P2;PMS_P1;PMS_P2;Temp;Humidity;BMP_temperature;BMP_pressure;BME280_temperature;BME280_humidity;BME280_pressure;Samples;Min_cycle;Max_cycle;Signal;HPM_P1;HPM_P2
2024/04/08 00:00:20;;;;;;;4.82;2.17;;;;;;;4.62;100.00;97022.84;7401908;19;20521;-60
2024/04/08 00:02:46;;;;;;;1.98;1.67;;;;;;;4.55;100.00;97020.31;7401398;19;20469;-56
2024/04/08 00:05:11;;;;;;;2.13;1.63;;;;;;;4.39;100.00;97029.91;7398764;19;20123;-57
2024/04/08 00:07:37;;;;;;;2.78;1.70;;;;;;;4.48;100.00;97023.81;7401767;19;20018;-54
2024/04/08 00:10:03;;;;;;;3.92;1.58;;;;;;;4.54;100.00;97021.19;7398953;19;20351;-57
2024/04/08 00:12:29;;;;;;;2.00;1.48;;;;;;;4.35;100.00;97024.75;7401086;19;20014;-55
2024/04/08 00:14:55;;;;;;;4.88;1.85;;;;;;;4.48;100.00;97016.03;7401080;19;20005;-60
2024/04/08 00:17:21;;;;;;;2.08;1.33;;;;;;;4.19;100.00;97016.19;7401088;19;20007;-52
2024/04/08 00:19:46;;;;;;;1.67;1.50;;;;;;;4.35;100.00;97020.44;7401258;19;20007;-61
2024/04/08 00:22:12;;;;;;;1.60;1.50;;;;;;;4.23;100.00;97013.59;7401169;19;20002;-58
2024/04/08 00:24:38;;;;;;;1.90;1.45;;;;;;;4.21;100.00;97019.66;7400915;19;20362;-53
2024/04/08 00:27:03;;;;;;;4.75;1.90;;;;;;;4.32;100.00;97020.44;7400660;19;20078;-60
2024/04/08 00:29:29;;;;;;;2.95;1.80;;;;;;;4.16;100.00;97015.31;7399060;19;20073;-55
2024/04/08 00:31:55;;;;;;;2.17;1.85;;;;;;;4.22;100.00;97018.78;7400892;19;20003;-57
2024/04/08 00:34:20;;;;;;;3.00;1.55;;;;;;;4.16;100.00;97017.91;7400742;19;20014;-58
2024/04/08 00:36:46;;;;;;;2.50;1.60;;;;;;;4.14;100.00;97017.09;7400453;19;20358;-59
2024/04/08 00:39:11;;;;;;;3.20;1.40;;;;;;;4.11;100.00;97022.28;7400319;19;20002;-59
2024/04/08 00:41:37;;;;;;;1.60;1.50;;;;;;;4.19;100.00;97011.00;7400169;19;20010;-60
2024/04/08 00:44:03;;;;;;;1.73;1.42;;;;;;;4.24;100.00;97014.47;7400042;19;20018;-57
2024/04/08 00:46:28;;;;;;;1.45;1.30;;;;;;;4.23;100.00;97016.19;7400003;19;20080;-54
2024/04/08 00:48:56;;;;;;;1.88;1.60;;;;;;;4.20;100.00;97008.41;7399130;19;20010;-56
2024/04/08 00:51:23;;;;;;;2.97;1.58;;;;;;;4.30;100.00;97006.63;7400327;19;20362;-58
2024/04/08 00:53:49;;;;;;;2.90;1.30;;;;;;;4.29;100.00;96999.75;7400139;19;20370;-57
2024/04/08 00:56:18;;;;;;;2.08;1.52;;;;;;;4.19;100.00;97003.25;7399778;19;19999;-55
2024/04/08 00:58:45;;;;;;;4.65;2.25;;;;;;;4.21;100.00;97007.53;7399652;19;20002;-59
2024/04/08 01:01:15;;;;;;;1.92;1.63;;;;;;;4.29;100.00;97010.09;7398332;19;20367;-58
2024/04/08 01:03:43;;;;;;;1.85;1.63;;;;;;;4.19;100.00;97008.44;7398916;19;20014;-55
2024/04/08 01:06:11;;;;;;;4.32;1.42;;;;;;;4.29;100.00;97005.78;7399433;19;20476;-60
2024/04/08 01:08:37;;;;;;;3.67;1.30;;;;;;;4.28;100.00;97009.22;7398783;19;20082;-63
2024/04/08 01:11:03;;;;;;;5.10;1.65;;;;;;;4.34;100.00;97007.47;7399767;19;20029;-56
2024/04/08 01:13:29;;;;;;;1.35;1.25;;;;;;;4.35;100.00;97006.59;7399264;19;20407;-55
2024/04/08 01:15:54;;;;;;;2.97;1.85;;;;;;;4.25;100.00;97004.06;7399035;19;19998;-58
2024/04/08 01:18:20;;;;;;;3.20;1.80;;;;;;;4.27;100.00;97004.06;7398831;19;20007;-62
2024/04/08 01:20:45;;;;;;;3.03;1.85;;;;;;;4.18;100.00;97002.38;7398995;19;19999;-57
2024/04/08 01:23:14;;;;;;;2.33;1.83;;;;;;;4.09;100.00;97003.28;7398811;19;19999;-54
2024/04/08 01:25:40;;;;;;;2.38;1.90;;;;;;;4.10;100.00;97007.63;7398770;19;20013;-60
2024/04/08 01:28:06;;;;;;;3.95;2.40;;;;;;;4.14;100.00;97001.53;7398692;19;20058;-60
2024/04/08 01:30:31;;;;;;;2.72;1.95;;;;;;;4.06;100.00;97010.22;7396759;19;19999;-54
2024/04/08 01:32:57;;;;;;;2.17;1.98;;;;;;;4.02;100.00;97001.59;7398864;19;20353;-57
2024/04/08 01:35:22;;;;;;;2.58;1.83;;;;;;;4.10;100.00;97004.16;7398371;19;20357;-61
2024/04/08 01:37:48;;;;;;;1.30;1.20;;;;;;;4.16;100.00;97004.13;7398373;19;20006;-60
2024/04/08 01:40:13;;;;;;;1.92;1.73;;;;;;;4.26;100.00;97002.34;7398173;19;20005;-55
2024/04/08 01:42:39;;;;;;;1.98;1.55;;;;;;;4.24;100.00;97006.69;7398512;19;20082;-59
2024/04/08 01:45:05;;;;;;;2.33;1.60;;;;;;;4.16;100.00;97007.56;7398043;19;20481;-54
2024/04/08 01:47:31;;;;;;;1.42;1.33;;;;;;;3.99;100.00;97007.66;7397947;19;20023;-56
2024/04/08 01:49:57;;;;;;;3.53;1.50;;;;;;;3.94;100.00;97011.13;7396377;19;20003;-58
2024/04/08 01:52:22;;;;;;;1.20;1.10;;;;;;;3.87;100.00;97008.56;7397742;19;19998;-54
2024/04/08 01:54:48;;;;;;;2.67;1.30;;;;;;;3.84;100.00;97005.13;7397813;19;20002;-58
2024/04/08 01:57:13;;;;;;;1.20;1.15;;;;;;;3.78;100.00;97008.59;7397606;19;20006;-58
2024/04/08 01:59:39;;;;;;;2.28;1.58;;;;;;;3.78;100.00;96999.09;7397559;19;20001;-60
2024/04/08 02:02:05;;;;;;;2.45;1.73;;;;;;;3.73;100.00;97011.19;7397477;19;19999;-58
2024/04/08 02:04:30;;;;;;;2.90;1.70;;;;;;;3.85;100.00;97004.28;7396105;19;19999;-60
2024/04/08 02:06:56;;;;;;;2.55;1.67;;;;;;;4.04;100.00;97002.47;7397657;19;20007;-55
2024/04/08 02:09:21;;;;;;;2.08;1.40;;;;;;;3.88;100.00;97002.50;7396441;19;20365;-56
2024/04/08 02:11:47;;;;;;;1.85;1.23;;;;;;;3.92;100.00;96996.44;7395329;19;20001;-57
2024/04/08 02:14:12;;;;;;;3.85;1.45;;;;;;;3.84;100.00;96999.94;7396303;19;20357;-63
2024/04/08 02:16:38;;;;;;;1.77;1.50;;;;;;;3.85;100.00;97002.53;7397113;19;19999;-58
2024/04/08 02:19:03;;;;;;;4.40;1.38;;;;;;;3.83;100.00;97001.69;7397039;19;19998;-59
2024/04/08 02:21:29;;;;;;;2.40;1.20;;;;;;;3.70;100.00;97003.44;7396970;19;19994;-59
2024/04/08 02:23:55;;;;;;;2.03;1.60;;;;;;;3.75;100.00;97009.47;7397190;19;20005;-60
2024/04/08 02:26:20;;;;;;;1.75;1.50;;;;;;;3.88;100.00;97002.50;7396851;19;19994;-59
2024/04/08 02:28:46;;;;;;;2.20;1.60;;;;;;;4.06;100.00;97005.88;7396290;19;20489;-51
2024/04/08 02:31:11;;;;;;;3.00;1.50;;;;;;;4.09;100.00;97010.22;7396904;19;20010;-57
2024/04/08 02:33:37;;;;;;;1.85;1.35;;;;;;;4.00;100.00;97003.34;7396510;19;20009;-61
2024/04/08 02:36:04;;;;;;;1.25;1.17;;;;;;;4.00;100.00;97011.97;7396774;19;20002;-56
2024/04/08 02:38:31;;;;;;;1.92;1.40;;;;;;;3.88;100.00;97012.88;7396362;19;20007;-56
2024/04/08 02:40:57;;;;;;;1.67;1.42;;;;;;;3.88;100.00;97012.88;7396192;19;20027;-60
2024/04/08 02:43:23;;;;;;;1.73;1.38;;;;;;;3.78;100.00;97011.19;7396292;19;19994;-58
2024/04/08 02:45:49;;;;;;;4.25;1.40;;;;;;;3.87;100.00;97011.16;7396508;19;20457;-54
2024/04/08 02:48:15;;;;;;;1.75;1.30;;;;;;;3.92;100.00;97022.34;7396112;19;20014;-58
2024/04/08 02:50:44;;;;;;;2.33;1.85;;;;;;;4.12;100.00;97010.19;7394252;19;20019;-61
2024/04/08 02:53:10;;;;;;;1.75;1.60;;;;;;;4.00;100.00;97014.53;7396348;19;20009;-60
2024/04/08 02:55:36;;;;;;;1.58;1.45;;;;;;;3.74;100.00;97017.22;7395769;19;20019;-57
2024/04/08 02:58:03;;;;;;;2.28;1.50;;;;;;;3.71;100.00;97020.69;7395670;19;20002;-60
2024/04/08 03:00:28;;;;;;;1.42;1.33;;;;;;;3.71;100.00;97030.19;7395661;19;20478;-54
2024/04/08 03:02:54;;;;;;;1.42;1.33;;;;;;;3.69;100.00;97021.53;7395781;19;19999;-63
2024/04/08 03:05:20;;;;;;;1.83;1.30;;;;;;;3.59;100.00;97039.72;7395529;19;20004;-57
2024/04/08 03:07:46;;;;;;;1.85;1.30;;;;;;;3.63;100.00;97032.78;7395797;19;20034;-56
2024/04/08 03:10:11;;;;;;;3.25;1.70;;;;;;;3.66;100.00;97049.19;7394316;19;20019;-60
2024/04/08 03:12:37;;;;;;;1.65;1.52;;;;;;;3.64;100.00;97040.53;7395666;19;20492;-59
2024/04/08 03:15:03;;;;;;;3.20;1.50;;;;;;;3.64;100.00;97044.84;7395168;19;20007;-57
2024/04/08 03:17:28;;;;;;;2.10;1.40;;;;;;;3.59;100.00;97039.72;7395221;19;20114;-62
2024/04/08 03:19:55;;;;;;;1.50;1.40;;;;;;;3.57;100.00;97041.44;7395056;19;20003;-55
2024/04/08 03:22:21;;;;;;;1.60;1.45;;;;;;;3.59;100.00;97052.66;7395512;19;20015;-60
2024/04/08 03:24:47;;;;;;;4.65;1.77;;;;;;;3.64;100.00;97053.47;7393811;19;20016;-60
2024/04/08 03:27:12;;;;;;;2.00;1.70;;;;;;;3.55;100.00;97045.72;7395319;19;20009;-59
2024/04/08 03:29:38;;;;;;;2.17;1.45;;;;;;;3.51;100.00;97047.47;7394132;19;20457;-58
2024/04/08 03:32:04;;;;;;;1.33;1.23;;;;;;;3.44;100.00;97056.13;7394718;19;20003;-57
2024/04/08 03:34:31;;;;;;;1.63;1.50;;;;;;;3.36;100.00;97052.66;7394869;19;19999;-58
2024/04/08 03:36:58;;;;;;;1.75;1.65;;;;;;;3.50;100.00;97060.41;7394762;19;20019;-59
2024/04/08 03:39:23;;;;;;;1.92;1.48;;;;;;;3.67;100.00;97063.81;7394562;19;20457;-58
2024/04/08 03:41:53;;;;;;;3.70;1.60;;;;;;;3.76;100.00;97062.94;7394670;19;20062;-57
2024/04/08 03:44:19;;;;;;;1.52;1.42;;;;;;;3.67;100.00;97066.41;7394893;19;20003;-62
2024/04/08 03:46:45;;;;;;;1.75;1.30;;;;;;;3.54;100.00;97057.81;7394355;19;20013;-59
2024/04/08 03:49:11;;;;;;;2.83;1.63;;;;;;;3.58;100.00;97061.25;7393915;19;20007;-61
2024/04/08 03:51:36;;;;;;;2.30;1.75;;;;;;;3.56;100.00;97057.81;7394452;19;20350;-61
2024/04/08 03:54:03;;;;;;;2.50;2.20;;;;;;;3.57;100.00;97053.50;7394308;19;20024;-56
2024/04/08 03:56:28;;;;;;;2.10;1.55;;;;;;;3.62;100.00;97065.59;7394302;19;20026;-58
2024/04/08 03:58:54;;;;;;;3.00;1.60;;;;;;;3.60;100.00;97062.13;7392589;19;20006;-56
2024/04/08 04:01:20;;;;;;;6.03;1.83;;;;;;;3.44;100.00;97061.28;7394005;19;20002;-62
2024/04/08 04:03:46;;;;;;;2.97;2.22;;;;;;;3.70;100.00;97062.94;7392868;19;20036;-57
2024/04/08 04:06:12;;;;;;;3.53;2.03;;;;;;;3.69;100.00;97061.25;7394282;19;20003;-57
2024/04/08 04:08:38;;;;;;;4.78;2.05;;;;;;;3.61;100.00;97063.00;7393465;19;20461;-59
2024/04/08 04:11:04;;;;;;;3.30;2.75;;;;;;;3.80;100.00;97066.41;7394242;19;20031;-60
2024/04/08 04:13:29;;;;;;;2.55;2.33;;;;;;;3.72;100.00;97065.53;7393632;19;20070;-59
2024/04/08 04:15:55;;;;;;;5.20;2.53;;;;;;;3.77;100.00;97064.66;7394013;19;20014;-60
2024/04/08 04:18:20;;;;;;;5.18;2.40;;;;;;;3.87;100.00;97067.22;7393594;19;19998;-61
2024/04/08 04:20:46;;;;;;;3.97;2.58;;;;;;;4.24;100.00;97066.25;7393481;19;19999;-57
2024/04/08 04:23:20;;;;;;;4.32;3.30;;;;;;;4.39;100.00;97065.28;7393482;19;20005;-58
2024/04/08 04:25:54;;;;;;;2.85;2.47;;;;;;;4.16;100.00;97071.47;7393566;19;20015;-61
2024/04/08 04:28:21;;;;;;;4.65;2.58;;;;;;;4.47;100.00;97068.72;7393306;19;20002;-63
2024/04/08 04:30:53;;;;;;;3.13;2.45;;;;;;;5.22;100.00;97073.44;7391025;19;20009;-61
2024/04/08 04:33:19;;;;;;;2.67;2.47;;;;;;;6.99;100.00;97074.06;7393220;19;20014;-59
2024/04/08 04:35:54;;;;;;;2.50;2.08;;;;;;;8.19;84.90;97075.44;7393999;19;20001;-56
2024/04/08 04:38:20;;;;;;;2.97;2.22;;;;;;;9.06;81.38;97084.97;7400254;19;20389;-63
2024/04/08 04:40:45;;;;;;;3.92;1.90;;;;;;;9.95;76.90;97088.84;7400673;19;20232;-61
2024/04/08 04:43:11;;;;;;;2.92;1.88;;;;;;;9.89;74.80;97085.53;7400076;19;20482;-64
2024/04/08 04:45:36;;;;;;;3.75;1.70;;;;;;;10.19;71.82;97089.09;7400824;19;20002;-56
2024/04/08 04:48:02;;;;;;;2.53;1.67;;;;;;;11.62;70.07;97093.56;7400391;19;20477;-53
2024/04/08 04:50:32;;;;;;;8.07;1.92;;;;;;;13.19;63.45;97110.72;7397978;19;20010;-60
2024/04/08 04:52:58;;;;;;;2.27;2.00;;;;;;;14.18;57.23;97123.31;7399950;19;19998;-60
2024/04/08 04:55:24;;;;;;;5.35;1.98;;;;;;;16.10;51.12;97125.03;7399858;19;20001;-59
2024/04/08 04:57:49;;;;;;;1.65;1.40;;;;;;;15.74;51.96;97124.13;7399769;19;20000;-57
2024/04/08 05:00:16;;;;;;;1.95;1.40;;;;;;;14.92;53.15;97121.00;7399601;19;19995;-61
2024/04/08 05:02:43;;;;;;;2.17;1.60;;;;;;;15.20;54.24;97124.97;7397991;19;20017;-54
2024/04/08 05:05:09;;;;;;;2.78;1.50;;;;;;;15.27;54.46;97123.72;7397071;19;20009;-56
2024/04/08 05:07:35;;;;;;;2.28;1.25;;;;;;;16.07;54.05;97125.19;7399315;19;20003;-59
2024/04/08 05:10:00;;;;;;;2.10;1.23;;;;;;;14.65;57.00;97118.66;7397647;19;19997;-59
2024/04/08 05:12:26;;;;;;;4.63;1.20;;;;;;;15.46;56.26;97114.09;7399183;19;20058;-58
2024/04/08 05:14:52;;;;;;;2.05;1.35;;;;;;;16.56;54.41;97131.50;7399562;19;20005;-56
2024/04/08 05:17:18;;;;;;;1.63;1.17;;;;;;;17.59;50.99;97135.66;7399006;19;20345;-57
2024/04/08 05:19:43;;;;;;;3.70;1.20;;;;;;;17.68;50.19;97135.13;7398990;19;19999;-56
2024/04/08 05:22:16;;;;;;;1.55;1.10;;;;;;;19.34;47.25;97142.03;7398898;19;20025;-59
2024/04/08 05:24:41;;;;;;;1.73;1.10;;;;;;;20.55;44.09;97143.81;7399532;19;19999;-59
2024/04/08 05:27:07;;;;;;;3.20;1.40;;;;;;;21.88;42.38;97147.78;7398671;19;20473;-55
2024/04/08 05:29:33;;;;;;;1.20;1.10;;;;;;;22.03;42.29;97139.63;7397980;19;20899;-57
2024/04/08 05:31:58;;;;;;;2.58;1.50;;;;;;;21.77;41.91;97140.63;7399348;19;20087;-60
2024/04/08 05:34:24;;;;;;;1.45;0.90;;;;;;;22.88;39.19;97145.63;7398922;19;20326;-52
2024/04/08 05:36:50;;;;;;;2.58;1.10;;;;;;;23.03;38.79;97146.19;7398817;19;20478;-59
2024/04/08 05:39:15;;;;;;;1.48;1.00;;;;;;;23.42;38.93;97140.47;7398413;19;20371;-60
2024/04/08 05:41:41;;;;;;;3.58;1.45;;;;;;;21.62;42.03;97126.59;7398275;19;20355;-58
2024/04/08 05:44:07;;;;;;;1.83;1.38;;;;;;;19.63;44.97;97123.34;7398163;19;19999;-53
2024/04/08 05:46:33;;;;;;;1.85;1.48;;;;;;;21.62;41.48;97123.94;7397290;19;20575;-60
2024/04/08 05:48:59;;;;;;;1.17;1.08;;;;;;;20.01;45.22;97121.78;7397770;19;19999;-58
2024/04/08 05:51:27;;;;;;;2.65;1.25;;;;;;;22.75;40.44;97132.38;7397961;19;20017;-59
2024/04/08 05:53:53;;;;;;;2.35;1.25;;;;;;;22.80;41.09;97137.34;7398023;19;19999;-57
2024/04/08 05:56:20;;;;;;;1.50;1.40;;;;;;;25.06;37.02;97136.72;7398128;19;20006;-58
2024/04/08 05:58:46;;;;;;;1.33;1.23;;;;;;;23.76;37.83;97146.69;7397826;19;20004;-56
2024/04/08 06:01:12;;;;;;;6.78;1.85;;;;;;;22.50;42.31;97144.94;7397686;19;20102;-60
2024/04/08 06:03:38;;;;;;;4.25;1.50;;;;;;;21.76;43.35;97132.75;7396421;19;20018;-60
2024/04/08 06:06:06;;;;;;;2.03;1.63;;;;;;;22.67;40.75;97148.16;7397455;19;20009;-55
2024/04/08 06:08:34;;;;;;;2.65;1.23;;;;;;;22.74;41.57;97152.03;7397187;19;20002;-60
2024/04/08 06:11:03;;;;;;;2.90;1.48;;;;;;;23.58;39.16;97157.91;7397303;19;20011;-62
2024/04/08 06:13:32;;;;;;;2.47;1.60;;;;;;;23.45;39.28;97163.41;7396095;19;20406;-56
2024/04/08 06:15:58;;;;;;;2.08;1.50;;;;;;;23.15;40.48;97160.38;7397516;19;19999;-57
2024/04/08 06:18:23;;;;;;;3.00;1.40;;;;;;;20.23;46.12;97143.38;7395597;19;19994;-58
2024/04/08 06:20:56;;;;;;;1.42;1.33;;;;;;;18.98;50.25;97136.28;7396944;19;20002;-56
2024/04/08 06:23:22;;;;;;;2.50;1.30;;;;;;;18.68;49.78;97145.19;7396941;19;20489;-55
2024/04/08 06:25:56;;;;;;;2.22;1.27;;;;;;;18.37;53.24;97137.34;7396870;19;20011;-57
2024/04/08 06:28:22;;;;;;;2.10;1.30;;;;;;;19.07;50.85;97134.84;7396768;19;20062;-59
2024/04/08 06:30:47;;;;;;;1.92;1.20;;;;;;;19.45;47.24;97146.66;7394925;19;19999;-56
2024/04/08 06:33:13;;;;;;;2.05;1.33;;;;;;;19.95;45.94;97138.09;7396465;19;20022;-52
2024/04/08 06:35:42;;;;;;;1.35;1.10;;;;;;;19.66;47.60;97152.34;7396437;19;20002;-56
2024/04/08 06:38:08;;;;;;;2.23;1.33;;;;;;;19.87;47.70;97151.88;7396839;19;20009;-56
2024/04/08 06:40:33;;;;;;;1.33;1.00;;;;;;;20.27;41.06;97163.47;7396722;19;20360;-58
2024/04/08 06:42:59;;;;;;;2.83;0.93;;;;;;;17.60;45.04;97156.72;7396288;19;20497;-54
2024/04/08 06:45:24;;;;;;;1.83;1.00;;;;;;;18.87;44.62;97157.31;7396426;19;19994;-58
2024/04/08 06:47:52;;;;;;;2.38;0.85;;;;;;;18.08;42.63;97157.53;7396290;19;20481;-58
2024/04/08 06:50:18;;;;;;;1.05;0.90;;;;;;;19.74;41.49;97162.47;7395073;19;20002;-57
2024/04/08 06:52:43;;;;;;;0.90;0.82;;;;;;;19.21;41.15;97155.22;7395991;19;20402;-56
2024/04/08 06:55:09;;;;;;;0.88;0.75;;;;;;;18.00;41.32;97156.22;7395860;19;19999;-59
2024/04/08 06:57:36;;;;;;;1.42;0.90;;;;;;;19.17;39.81;97162.50;7395773;19;19999;-57
2024/04/08 07:00:03;;;;;;;0.73;0.73;;;;;;;18.49;40.16;97159.59;7394407;19;20002;-51
2024/04/08 07:02:29;;;;;;;3.97;0.80;;;;;;;17.99;40.07;97156.31;7396098;19;20018;-55
2024/04/08 07:04:54;;;;;;;2.78;0.80;;;;;;;19.22;37.78;97154.28;7394312;19;20567;-56
2024/04/08 07:07:20;;;;;;;2.17;0.77;;;;;;;19.05;39.44;97150.00;7395609;19;20007;-57
2024/04/08 07:09:46;;;;;;;2.30;1.00;;;;;;;18.99;38.89;97153.06;7394741;19;19999;-56
2024/04/08 07:12:11;;;;;;;3.28;0.88;;;;;;;18.24;39.00;97155.72;7395360;19;20392;-56
2024/04/08 07:14:37;;;;;;;2.05;1.08;;;;;;;18.74;38.92;97159.84;7395229;19;20019;-54
2024/04/08 07:17:03;;;;;;;0.77;0.65;;;;;;;19.24;40.19;97162.13;7395423;19;20025;-58
2024/04/08 07:19:29;;;;;;;0.73;0.70;;;;;;;18.55;40.42;97161.00;7395190;19;20480;-57
2024/04/08 07:21:55;;;;;;;2.85;0.70;;;;;;;20.07;36.25;97155.91;7395235;19;20029;-58
2024/04/08 07:24:20;;;;;;;4.15;0.70;;;;;;;19.88;35.65;97155.38;7395449;19;19998;-58
2024/04/08 07:26:47;;;;;;;1.80;0.98;;;;;;;18.81;38.39;97150.56;7394977;19;20002;-53
2024/04/08 07:29:12;;;;;;;1.80;0.93;;;;;;;19.65;33.94;97153.28;7394265;19;20460;-56
2024/04/08 07:31:38;;;;;;;2.70;0.93;;;;;;;20.20;32.21;97155.09;7394870;19;19999;-55
2024/04/08 07:34:03;;;;;;;1.17;0.65;;;;;;;19.16;34.55;97147.56;7394685;19;20054;-52
2024/04/08 07:36:29;;;;;;;1.13;0.70;;;;;;;19.84;34.99;97149.44;7394668;19;19991;-56
2024/04/08 07:38:55;;;;;;;0.80;0.77;;;;;;;19.09;36.96;97159.50;7394754;19;19995;-57
2024/04/08 07:41:21;;;;;;;1.05;0.70;;;;;;;18.43;37.08;97154.66;7394650;19;20547;-57
2024/04/08 07:43:47;;;;;;;1.85;0.82;;;;;;;20.31;36.66;97149.00;7394494;19;20357;-58
2024/04/08 07:46:13;;;;;;;1.58;0.70;;;;;;;20.73;36.51;97150.59;7394884;19;19999;-58
2024/04/08 07:48:38;;;;;;;0.90;0.73;;;;;;;19.78;36.14;97155.16;7394199;19;20109;-55
2024/04/08 07:51:04;;;;;;;0.70;0.70;;;;;;;21.18;32.52;97153.69;7394334;19;19998;-58
2024/04/08 07:53:32;;;;;;;1.55;0.68;;;;;;;22.50;31.75;97157.41;7394279;19;19998;-60
2024/04/08 07:55:59;;;;;;;0.95;0.70;;;;;;;21.52;33.99;97157.53;7394295;19;20016;-57
2024/04/08 07:58:26;;;;;;;1.40;0.63;;;;;;;19.99;35.55;97150.22;7394637;19;20011;-57
2024/04/08 08:01:02;;;;;;;0.90;0.70;;;;;;;18.26;35.92;97147.69;7394102;19;19999;-58
2024/04/08 08:03:27;;;;;;;1.45;0.60;;;;;;;19.22;36.46;97158.72;7393754;19;20015;-60
2024/04/08 08:05:54;;;;;;;1.15;0.70;;;;;;;19.36;37.74;97148.09;7394455;19;20333;-55
2024/04/08 08:08:20;;;;;;;0.85;0.65;;;;;;;19.35;35.32;97145.53;7393812;19;19995;-58
2024/04/08 08:10:45;;;;;;;1.08;0.63;;;;;;;20.96;35.74;97139.25;7396503;19;20011;-57
2024/04/08 08:13:11;;;;;;;2.13;0.65;;;;;;;17.97;37.96;97143.16;7401167;19;20006;-58
2024/04/08 08:15:37;;;;;;;1.33;0.82;;;;;;;19.77;34.06;97148.97;7401114;19;20369;-59
2024/04/08 08:18:03;;;;;;;1.02;0.75;;;;;;;20.23;34.62;97156.66;7401037;19;19999;-56
2024/04/08 08:20:30;;;;;;;1.40;0.73;;;;;;;18.26;35.54;97145.91;7401093;19;20027;-56
2024/04/08 08:23:00;;;;;;;1.30;0.63;;;;;;;19.96;33.11;97145.13;7400915;19;20026;-57
2024/04/08 08:25:29;;;;;;;0.90;0.60;;;;;;;20.64;32.73;97146.78;7400946;19;20497;-52
2024/04/08 08:27:55;;;;;;;1.02;0.77;;;;;;;20.82;34.08;97145.53;7400706;19;20002;-54
2024/04/08 08:30:21;;;;;;;0.50;0.50;;;;;;;18.69;35.16;97141.59;7398652;19;20002;-54
2024/04/08 08:32:50;;;;;;;0.95;0.75;;;;;;;19.14;34.92;97143.31;7400577;19;19999;-52
2024/04/08 08:35:15;;;;;;;1.08;0.77;;;;;;;18.96;36.07;97143.47;7400491;19;19995;-53
2024/04/08 08:37:41;;;;;;;2.38;0.65;;;;;;;18.12;36.44;97149.38;7400404;19;20028;-55
2024/04/08 08:40:07;;;;;;;2.35;0.70;;;;;;;19.10;35.93;97157.69;7400776;19;20019;-59
2024/04/08 08:42:33;;;;;;;1.20;0.70;;;;;;;19.82;33.47;97154.84;7400287;19;20005;-55
2024/04/08 08:45:01;;;;;;;0.60;0.60;;;;;;;19.46;34.56;97156.31;7400694;19;19999;-59
2024/04/08 08:47:27;;;;;;;0.70;0.70;;;;;;;18.94;34.74;97158.63;7400037;19;19999;-57
2024/04/08 08:49:54;;;;;;;1.58;0.65;;;;;;;20.67;34.80;97147.44;7398917;19;20003;-57
2024/04/08 08:52:21;;;;;;;1.40;0.77;;;;;;;19.49;34.32;97155.25;7399891;19;20023;-56
2024/04/08 08:54:50;;;;;;;1.85;0.68;;;;;;;19.94;32.96;97153.19;7399921;19;20464;-57
2024/04/08 08:57:16;;;;;;;2.47;0.80;;;;;;;18.80;35.51;97152.41;7400179;19;20354;-59
2024/04/08 08:59:42;;;;;;;3.92;0.90;;;;;;;18.17;36.34;97149.09;7399668;19;19994;-54
2024/04/08 09:02:13;;;;;;;3.65;0.73;;;;;;;19.06;37.53;97149.91;7399987;19;20003;-60
2024/04/08 09:04:41;;;;;;;0.77;0.70;;;;;;;19.17;34.39;97148.41;7397864;19;20521;-55
2024/04/08 09:07:07;;;;;;;3.33;1.10;;;;;;;20.99;34.79;97147.97;7399583;19;20002;-53
2024/04/08 09:09:33;;;;;;;0.98;0.70;;;;;;;18.73;34.33;97144.91;7398327;19;20460;-54
2024/04/08 09:11:59;;;;;;;0.60;0.60;;;;;;;18.43;34.97;97142.25;7399294;19;19998;-58
2024/04/08 09:14:28;;;;;;;1.10;0.80;;;;;;;18.41;34.48;97141.50;7399263;19;20028;-58
2024/04/08 09:17:07;;;;;;;2.58;0.90;;;;;;;18.10;35.62;97135.41;7399188;19;20029;-55
2024/04/08 09:19:33;;;;;;;0.82;0.55;;;;;;;18.64;35.90;97141.91;7399359;19;19998;-60
2024/04/08 09:21:58;;;;;;;1.23;0.70;;;;;;;20.29;33.32;97132.34;7397499;19;20002;-58
2024/04/08 09:24:24;;;;;;;1.73;0.85;;;;;;;20.27;34.63;97132.47;7398807;19;20002;-57
2024/04/08 09:26:52;;;;;;;1.48;0.95;;;;;;;20.10;32.17;97135.41;7398817;19;19995;-57
2024/04/08 09:29:18;;;;;;;1.33;0.88;;;;;;;20.90;35.20;97121.09;7398306;19;20049;-54
2024/04/08 09:31:45;;;;;;;2.78;0.70;;;;;;;20.51;33.41;97131.72;7398571;19;19999;-57
2024/04/08 09:34:11;;;;;;;1.23;0.70;;;;;;;19.57;35.70;97132.56;7398454;19;20026;-61
2024/04/08 09:36:39;;;;;;;1.10;0.70;;;;;;;20.67;32.51;97128.84;7398604;19;19997;-54
2024/04/08 09:39:08;;;;;;;1.05;0.80;;;;;;;20.29;32.56;97127.88;7398542;19;20015;-56
2024/04/08 09:41:36;;;;;;;2.22;0.70;;;;;;;19.85;34.35;97123.72;7398338;19;20066;-57
2024/04/08 09:44:03;;;;;;;0.65;0.60;;;;;;;20.99;34.44;97113.41;7398238;19;20068;-56
2024/04/08 09:46:29;;;;;;;0.70;0.70;;;;;;;21.00;34.43;97118.59;7398024;19;20392;-55
2024/04/08 09:48:55;;;;;;;1.38;0.60;;;;;;;20.31;34.36;97118.00;7397726;19;19999;-52
2024/04/08 09:51:22;;;;;;;0.82;0.80;;;;;;;19.35;34.13;97114.53;7397977;19;20062;-55
2024/04/08 09:53:47;;;;;;;1.42;0.70;;;;;;;18.12;36.86;97114.13;7396414;19;20505;-52
2024/04/08 09:56:17;;;;;;;1.35;0.70;;;;;;;17.91;37.75;97109.13;7397813;19;19999;-58
2024/04/08 09:59:13;;;;;;;0.88;0.60;;;;;;;17.52;36.66;97103.44;7397869;19;20461;-57
2024/04/08 10:01:39;;;;;;;1.15;0.70;;;;;;;18.25;37.16;97108.94;7398230;19;20007;-59
2024/04/08 10:04:22;;;;;;;0.95;0.82;;;;;;;18.88;37.40;97103.34;7396563;19;20009;-54
2024/04/08 10:06:49;;;;;;;1.58;0.65;;;;;;;18.32;35.03;97110.25;7397428;19;20481;-57
2024/04/08 10:09:20;;;;;;;0.93;0.60;;;;;;;19.72;33.86;97100.69;7396689;19;20003;-57
2024/04/08 10:11:50;;;;;;;2.97;0.80;;;;;;;21.19;32.58;97104.00;7397855;19;20009;-58
2024/04/08 10:14:19;;;;;;;1.35;0.70;;;;;;;21.18;31.78;97100.47;7397228;19;20046;-59
2024/04/08 10:16:49;;;;;;;1.33;0.85;;;;;;;18.92;34.38;97089.81;7397484;19;19994;-55
2024/04/08 10:19:15;;;;;;;1.38;1.00;;;;;;;18.68;37.26;97087.78;7397412;19;19995;-56
2024/04/08 10:21:41;;;;;;;0.75;0.75;;;;;;;18.96;34.84;97081.69;7397399;19;20002;-58
2024/04/08 10:24:26;;;;;;;1.75;0.88;;;;;;;19.03;35.10;97083.81;7396853;19;20022;-56
2024/04/08 10:27:01;;;;;;;1.52;0.85;;;;;;;19.54;35.32;97076.22;7396900;19;20356;-52
2024/04/08 10:29:27;;;;;;;2.15;1.00;;;;;;;20.39;32.32;97069.66;7396092;19;20014;-52
2024/04/08 10:31:52;;;;;;;1.27;0.80;;;;;;;20.06;33.21;97073.69;7396561;19;19999;-59
2024/04/08 10:34:20;;;;;;;2.05;0.90;;;;;;;18.85;34.38;97069.09;7394495;19;20016;-57
2024/04/08 10:36:45;;;;;;;2.72;1.05;;;;;;;18.17;35.22;97062.59;7396503;19;20010;-58
2024/04/08 10:39:11;;;;;;;0.88;0.85;;;;;;;19.77;34.94;97065.84;7396596;19;19998;-56
2024/04/08 10:41:36;;;;;;;1.58;0.70;;;;;;;18.38;35.33;97056.06;7396335;19;20080;-55
2024/04/08 10:44:02;;;;;;;1.20;0.93;;;;;;;19.02;34.57;97052.13;7396611;19;20036;-52
2024/04/08 10:46:28;;;;;;;2.17;1.20;;;;;;;19.01;35.34;97055.72;7396089;19;20011;-58
2024/04/08 10:48:54;;;;;;;1.17;1.08;;;;;;;20.30;34.96;97057.88;7395726;19;20070;-58
2024/04/08 10:51:20;;;;;;;4.18;1.20;;;;;;;20.96;38.51;97046.19;7395976;19;20015;-56
2024/04/08 10:53:46;;;;;;;2.85;1.15;;;;;;;20.73;33.04;97041.63;7396102;19;20070;-55
2024/04/08 10:56:11;;;;;;;3.10;2.03;;;;;;;18.34;35.92;97042.19;7395846;19;20012;-60
2024/04/08 10:58:37;;;;;;;2.95;1.88;;;;;;;18.54;35.16;97037.44;7396139;19;20003;-57
2024/04/08 11:01:04;;;;;;;1.92;1.50;;;;;;;19.61;34.05;97031.53;7395661;19;20546;-53
2024/04/08 11:03:30;;;;;;;3.28;1.65;;;;;;;19.39;34.86;97028.50;7395333;19;20010;-58
2024/04/08 11:05:56;;;;;;;3.78;1.63;;;;;;;20.37;35.39;97022.88;7395547;19;20402;-57
2024/04/08 11:08:22;;;;;;;2.33;1.33;;;;;;;19.15;35.44;97031.84;7395932;19;20011;-60
2024/04/08 11:10:48;;;;;;;2.92;1.40;;;;;;;19.34;35.45;97030.63;7393933;19;20484;-57
2024/04/08 11:13:14;;;;;;;2.03;1.23;;;;;;;19.88;33.62;97027.97;7395400;19;20002;-57
2024/04/08 11:15:43;;;;;;;1.83;1.30;;;;;;;20.74;32.78;97020.25;7395279;19;20002;-58
2024/04/08 11:18:12;;;;;;;1.55;1.05;;;;;;;20.79;31.94;97017.28;7395238;19;20014;-61
2024/04/08 11:20:38;;;;;;;1.10;0.80;;;;;;;21.32;33.26;97011.69;7395193;19;20006;-54
2024/04/08 11:23:05;;;;;;;2.70;0.90;;;;;;;20.74;35.08;97009.63;7394991;19;19995;-58
2024/04/08 11:25:30;;;;;;;1.40;1.00;;;;;;;21.43;33.52;97002.88;7395485;19;20066;-59
2024/04/08 11:27:57;;;;;;;2.92;1.25;;;;;;;21.61;33.59;97006.94;7395110;19;20053;-58
2024/04/08 11:30:24;;;;;;;2.40;1.20;;;;;;;21.61;35.31;96997.13;7393433;19;20083;-57